sensor_id;sensor_type;location;lat;lon;timestamp;pressure;altitude;pressure_sealevel;temperature;humidity
75640;BME280;64233;51.486;6.332;2023-02-01T00:01:44;101703.19;;;3.67;100.00
75640;BME280;64233;51.486;6.332;2023-02-01T00:04:09;101697.88;;;3.82;100.00
75640;BME280;64233;51.486;6.332;2023-02-01T00:06:34;101696.53;;;3.86;100.00
75640;BME280;64233;51.486;6.332;2023-02-01T00:09:00;101696.59;;;3.77;100.00
75640;BME280;64233;51.486;6.332;2023-02-01T00:11:25;101699.81;;;3.73;100.00
75640;BME280;64233;51.486;6.332;2023-02-01T00:13:50;101694.66;;;3.71;100.00
75640;BME280;64233;51.486;6.332;2023-02-01T00:16:18;101703.81;;;3.54;100.00
75640;BME280;64233;51.486;6.332;2023-02-01T00:18:45;101700.09;;;3.25;100.00
75640;BME280;64233;51.486;6.332;2023-02-01T00:21:12;101685.72;;;3.19;100.00
75640;BME280;64233;51.486;6.332;2023-02-01T00:23:38;101688.56;;;3.18;100.00
75640;BME280;64233;51.486;6.332;2023-02-01T00:26:08;101683.25;;;3.18;100.00
75640;BME280;64233;51.486;6.332;2023-02-01T00:28:37;101673.66;;;3.32;100.00
75640;BME280;64233;51.486;6.332;2023-02-01T00:31:04;101665.53;;;3.33;100.00
75640;BME280;64233;51.486;6.332;2023-02-01T00:33:30;101650.88;;;3.37;100.00
75640;BME280;64233;51.486;6.332;2023-02-01T00:35:57;101634.59;;;3.40;100.00
75640;BME280;64233;51.486;6.332;2023-02-01T00:38:23;101619.13;;;3.44;100.00
75640;BME280;64233;51.486;6.332;2023-02-01T00:40:48;101621.78;;;3.44;100.00
75640;BME280;64233;51.486;6.332;2023-02-01T00:43:14;101633.56;;;3.41;100.00
75640;BME280;64233;51.486;6.332;2023-02-01T00:45:39;101638.16;;;3.33;100.00
75640;BME280;64233;51.486;6.332;2023-02-01T00:48:04;101638.56;;;3.44;100.00
75640;BME280;64233;51.486;6.332;2023-02-01T00:50:30;101636.69;;;3.75;100.00
75640;BME280;64233;51.486;6.332;2023-02-01T00:52:55;101644.56;;;3.68;100.00
75640;BME280;64233;51.486;6.332;2023-02-01T00:55:20;101651.44;;;3.77;100.00
75640;BME280;64233;51.486;6.332;2023-02-01T00:57:46;101651.69;;;3.83;100.00
75640;BME280;64233;51.486;6.332;2023-02-01T01:00:11;101665.09;;;3.74;100.00
75640;BME280;64233;51.486;6.332;2023-02-01T01:02:37;101670.22;;;3.76;100.00
75640;BME280;64233;51.486;6.332;2023-02-01T01:05:02;101658.13;;;3.73;100.00
75640;BME280;64233;51.486;6.332;2023-02-01T01:07:28;101652.44;;;3.76;100.00
75640;BME280;64233;51.486;6.332;2023-02-01T01:09:53;101664.44;;;3.72;100.00
75640;BME280;64233;51.486;6.332;2023-02-01T01:12:18;101669.78;;;3.87;100.00
75640;BME280;64233;51.486;6.332;2023-02-01T01:14:47;101661.69;;;3.81;100.00
75640;BME280;64233;51.486;6.332;2023-02-01T01:17:13;101658.69;;;3.99;100.00
75640;BME280;64233;51.486;6.332;2023-02-01T01:19:38;101665.63;;;3.70;100.00
75640;BME280;64233;51.486;6.332;2023-02-01T01:22:03;101678.72;;;3.71;100.00
75640;BME280;64233;51.486;6.332;2023-02-01T01:24:29;101674.81;;;3.67;100.00
75640;BME280;64233;51.486;6.332;2023-02-01T01:26:54;101672.50;;;3.49;100.00
75640;BME280;64233;51.486;6.332;2023-02-01T01:29:19;101655.09;;;3.47;100.00
75640;BME280;64233;51.486;6.332;2023-02-01T01:31:44;101656.66;;;3.41;100.00
75640;BME280;64233;51.486;6.332;2023-02-01T01:34:10;101667.75;;;3.44;100.00
75640;BME280;64233;51.486;6.332;2023-02-01T01:36:35;101655.06;;;3.32;100.00
75640;BME280;64233;51.486;6.332;2023-02-01T01:39:00;101656.56;;;3.64;100.00
75640;BME280;64233;51.486;6.332;2023-02-01T01:41:29;101647.31;;;3.45;100.00
75640;BME280;64233;51.486;6.332;2023-02-01T01:43:58;101636.41;;;3.70;100.00
75640;BME280;64233;51.486;6.332;2023-02-01T01:46:30;101646.41;;;3.53;100.00
75640;BME280;64233;51.486;6.332;2023-02-01T01:49:12;101647.03;;;3.70;100.00
75640;BME280;64233;51.486;6.332;2023-02-01T01:51:46;101656.75;;;3.48;100.00
75640;BME280;64233;51.486;6.332;2023-02-01T01:54:20;101655.66;;;3.57;100.00
75640;BME280;64233;51.486;6.332;2023-02-01T01:56:49;101649.59;;;3.48;100.00
75640;BME280;64233;51.486;6.332;2023-02-01T01:59:16;101644.63;;;3.30;100.00
75640;BME280;64233;51.486;6.332;2023-02-01T02:01:42;101641.66;;;3.33;100.00
75640;BME280;64233;51.486;6.332;2023-02-01T02:04:07;101646.41;;;3.00;100.00
75640;BME280;64233;51.486;6.332;2023-02-01T02:06:47;101645.25;;;3.02;100.00
75640;BME280;64233;51.486;6.332;2023-02-01T02:09:15;101642.41;;;2.81;100.00
75640;BME280;64233;51.486;6.332;2023-02-01T02:11:41;101651.66;;;2.85;100.00
75640;BME280;64233;51.486;6.332;2023-02-01T02:14:09;101648.97;;;2.93;100.00
75640;BME280;64233;51.486;6.332;2023-02-01T02:17:38;101645.34;;;2.71;100.00
75640;BME280;64233;51.486;6.332;2023-02-01T02:19:49;101650.38;;;2.57;100.00
75640;BME280;64233;51.486;6.332;2023-02-01T02:22:40;101638.84;;;2.50;100.00
75640;BME280;64233;51.486;6.332;2023-02-01T02:31:12;101624.63;;;2.66;100.00
75640;BME280;64233;51.486;6.332;2023-02-01T02:34:02;101621.53;;;2.63;100.00
75640;BME280;64233;51.486;6.332;2023-02-01T02:36:51;101615.94;;;2.57;100.00
75640;BME280;64233;51.486;6.332;2023-02-01T02:39:45;101615.16;;;2.49;100.00
75640;BME280;64233;51.486;6.332;2023-02-01T02:42:25;101629.22;;;2.49;100.00
75640;BME280;64233;51.486;6.332;2023-02-01T02:45:28;101614.53;;;2.47;100.00
75640;BME280;64233;51.486;6.332;2023-02-01T02:51:23;101623.75;;;2.51;100.00
75640;BME280;64233;51.486;6.332;2023-02-01T02:54:15;101606.97;;;2.58;100.00
75640;BME280;64233;51.486;6.332;2023-02-01T02:57:04;101611.19;;;2.68;100.00
75640;BME280;64233;51.486;6.332;2023-02-01T02:59:50;101604.63;;;2.64;100.00
75640;BME280;64233;51.486;6.332;2023-02-01T03:02:34;101604.84;;;2.77;100.00
75640;BME280;64233;51.486;6.332;2023-02-01T03:05:18;101604.28;;;2.67;100.00
75640;BME280;64233;51.486;6.332;2023-02-01T03:07:56;101601.97;;;2.64;100.00
75640;BME280;64233;51.486;6.332;2023-02-01T03:10:43;101588.38;;;2.82;100.00
75640;BME280;64233;51.486;6.332;2023-02-01T03:13:38;101596.75;;;2.93;100.00
75640;BME280;64233;51.486;6.332;2023-02-01T03:16:13;101599.22;;;2.95;100.00
75640;BME280;64233;51.486;6.332;2023-02-01T03:18:52;101588.44;;;2.97;100.00
75640;BME280;64233;51.486;6.332;2023-02-01T03:21:27;101591.66;;;3.07;100.00
75640;BME280;64233;51.486;6.332;2023-02-01T03:23:58;101575.44;;;3.02;100.00
75640;BME280;64233;51.486;6.332;2023-02-01T03:26:27;101574.25;;;3.04;100.00
75640;BME280;64233;51.486;6.332;2023-02-01T03:29:08;101580.13;;;3.15;100.00
75640;BME280;64233;51.486;6.332;2023-02-01T03:31:36;101581.94;;;3.14;100.00
75640;BME280;64233;51.486;6.332;2023-02-01T03:34:01;101578.66;;;3.27;100.00
75640;BME280;64233;51.486;6.332;2023-02-01T03:36:31;101578.56;;;3.20;100.00
75640;BME280;64233;51.486;6.332;2023-02-01T03:39:07;101579.41;;;3.36;100.00
75640;BME280;64233;51.486;6.332;2023-02-01T03:41:39;101578.41;;;3.37;100.00
75640;BME280;64233;51.486;6.332;2023-02-01T03:44:13;101574.56;;;3.39;100.00
75640;BME280;64233;51.486;6.332;2023-02-01T03:46:51;101561.09;;;3.56;100.00
75640;BME280;64233;51.486;6.332;2023-02-01T03:49:27;101569.06;;;3.41;100.00
75640;BME280;64233;51.486;6.332;2023-02-01T03:51:54;101563.75;;;3.56;100.00
75640;BME280;64233;51.486;6.332;2023-02-01T03:54:21;101555.78;;;3.56;100.00
75640;BME280;64233;51.486;6.332;2023-02-01T03:56:48;101550.19;;;3.36;100.00
75640;BME280;64233;51.486;6.332;2023-02-01T03:59:13;101537.41;;;3.39;100.00
75640;BME280;64233;51.486;6.332;2023-02-01T04:01:39;101543.97;;;3.28;100.00
75640;BME280;64233;51.486;6.332;2023-02-01T04:04:05;101542.81;;;3.31;100.00
75640;BME280;64233;51.486;6.332;2023-02-01T04:06:30;101553.13;;;3.26;100.00
75640;BME280;64233;51.486;6.332;2023-02-01T04:08:55;101546.25;;;3.32;100.00
75640;BME280;64233;51.486;6.332;2023-02-01T04:11:22;101535.03;;;3.44;100.00
75640;BME280;64233;51.486;6.332;2023-02-01T04:13:47;101551.69;;;3.23;100.00
75640;BME280;64233;51.486;6.332;2023-02-01T04:16:12;101547.47;;;3.29;100.00
75640;BME280;64233;51.486;6.332;2023-02-01T04:18:38;101549.22;;;3.22;100.00
75640;BME280;64233;51.486;6.332;2023-02-01T04:21:03;101548.91;;;3.02;100.00
75640;BME280;64233;51.486;6.332;2023-02-01T04:23:29;101549.94;;;3.31;100.00
75640;BME280;64233;51.486;6.332;2023-02-01T04:25:59;101562.81;;;3.49;100.00
75640;BME280;64233;51.486;6.332;2023-02-01T04:28:25;101570.00;;;3.33;100.00
75640;BME280;64233;51.486;6.332;2023-02-01T04:30:50;101576.75;;;3.36;100.00
75640;BME280;64233;51.486;6.332;2023-02-01T04:33:16;101566.31;;;3.19;100.00
75640;BME280;64233;51.486;6.332;2023-02-01T04:35:41;101565.03;;;3.15;100.00
75640;BME280;64233;51.486;6.332;2023-02-01T04:38:06;101573.91;;;3.22;100.00
75640;BME280;64233;51.486;6.332;2023-02-01T04:40:32;101579.38;;;3.06;100.00
75640;BME280;64233;51.486;6.332;2023-02-01T04:42:57;101572.97;;;3.00;100.00
75640;BME280;64233;51.486;6.332;2023-02-01T04:45:23;101565.84;;;3.16;100.00
75640;BME280;64233;51.486;6.332;2023-02-01T04:47:48;101573.38;;;3.12;100.00
75640;BME280;64233;51.486;6.332;2023-02-01T04:50:14;101585.59;;;3.13;100.00
75640;BME280;64233;51.486;6.332;2023-02-01T04:52:39;101571.22;;;3.07;100.00
75640;BME280;64233;51.486;6.332;2023-02-01T04:55:04;101568.78;;;3.06;100.00
75640;BME280;64233;51.486;6.332;2023-02-01T04:57:30;101570.22;;;2.93;100.00
75640;BME280;64233;51.486;6.332;2023-02-01T04:59:56;101572.81;;;3.17;100.00
75640;BME280;64233;51.486;6.332;2023-02-01T05:02:21;101574.06;;;3.06;100.00
75640;BME280;64233;51.486;6.332;2023-02-01T05:04:49;101580.59;;;3.18;100.00
75640;BME280;64233;51.486;6.332;2023-02-01T05:07:19;101585.25;;;3.16;100.00
75640;BME280;64233;51.486;6.332;2023-02-01T05:09:44;101581.94;;;2.99;100.00
75640;BME280;64233;51.486;6.332;2023-02-01T05:12:09;101578.47;;;2.99;100.00
75640;BME280;64233;51.486;6.332;2023-02-01T05:14:54;101568.56;;;2.92;100.00
75640;BME280;64233;51.486;6.332;2023-02-01T05:17:19;101570.31;;;2.85;100.00
75640;BME280;64233;51.486;6.332;2023-02-01T05:19:44;101575.34;;;2.95;100.00
75640;BME280;64233;51.486;6.332;2023-02-01T05:22:09;101584.94;;;2.96;100.00
75640;BME280;64233;51.486;6.332;2023-02-01T05:24:35;101577.97;;;2.80;100.00
75640;BME280;64233;51.486;6.332;2023-02-01T05:27:00;101568.47;;;2.86;100.00
75640;BME280;64233;51.486;6.332;2023-02-01T05:29:25;101562.63;;;2.90;100.00
75640;BME280;64233;51.486;6.332;2023-02-01T05:31:51;101561.13;;;2.73;100.00
75640;BME280;64233;51.486;6.332;2023-02-01T05:34:16;101556.31;;;2.77;100.00
75640;BME280;64233;51.486;6.332;2023-02-01T05:36:42;101561.94;;;2.73;100.00
75640;BME280;64233;51.486;6.332;2023-02-01T05:39:07;101570.00;;;2.80;100.00
75640;BME280;64233;51.486;6.332;2023-02-01T05:41:33;101570.81;;;2.81;100.00
75640;BME280;64233;51.486;6.332;2023-02-01T05:43:58;101573.88;;;2.92;100.00
75640;BME280;64233;51.486;6.332;2023-02-01T05:46:23;101572.78;;;3.02;100.00
75640;BME280;64233;51.486;6.332;2023-02-01T05:48:48;101557.19;;;3.22;100.00
75640;BME280;64233;51.486;6.332;2023-02-01T05:51:14;101554.88;;;3.19;100.00
75640;BME280;64233;51.486;6.332;2023-02-01T05:53:39;101532.94;;;3.25;100.00
75640;BME280;64233;51.486;6.332;2023-02-01T05:56:05;101546.47;;;3.15;100.00
75640;BME280;64233;51.486;6.332;2023-02-01T05:58:30;101553.25;;;3.18;100.00
75640;BME280;64233;51.486;6.332;2023-02-01T06:00:59;101555.72;;;3.19;100.00
75640;BME280;64233;51.486;6.332;2023-02-01T06:03:24;101549.75;;;3.17;100.00
75640;BME280;64233;51.486;6.332;2023-02-01T06:05:56;101552.41;;;3.17;100.00
75640;BME280;64233;51.486;6.332;2023-02-01T06:08:29;101563.22;;;3.31;100.00
75640;BME280;64233;51.486;6.332;2023-02-01T06:11:04;101557.34;;;3.20;100.00
75640;BME280;64233;51.486;6.332;2023-02-01T06:13:30;101553.22;;;3.33;100.00
75640;BME280;64233;51.486;6.332;2023-02-01T06:15:55;101559.63;;;3.38;100.00
75640;BME280;64233;51.486;6.332;2023-02-01T06:18:22;101565.69;;;3.32;100.00
75640;BME280;64233;51.486;6.332;2023-02-01T06:20:58;101573.00;;;3.30;100.00
75640;BME280;64233;51.486;6.332;2023-02-01T06:23:28;101564.59;;;3.26;100.00
75640;BME280;64233;51.486;6.332;2023-02-01T06:25:59;101564.84;;;3.32;100.00
75640;BME280;64233;51.486;6.332;2023-02-01T06:28:25;101577.47;;;3.30;100.00
75640;BME280;64233;51.486;6.332;2023-02-01T06:30:50;101573.00;;;3.30;100.00
75640;BME280;64233;51.486;6.332;2023-02-01T06:33:15;101566.13;;;3.21;100.00
75640;BME280;64233;51.486;6.332;2023-02-01T06:35:42;101572.06;;;3.23;100.00
75640;BME280;64233;51.486;6.332;2023-02-01T06:38:09;101562.13;;;3.25;100.00
75640;BME280;64233;51.486;6.332;2023-02-01T06:40:34;101553.59;;;3.30;100.00
75640;BME280;64233;51.486;6.332;2023-02-01T06:43:00;101557.00;;;3.23;100.00
75640;BME280;64233;51.486;6.332;2023-02-01T06:45:25;101560.94;;;3.27;100.00
75640;BME280;64233;51.486;6.332;2023-02-01T06:47:51;101564.31;;;3.36;100.00
75640;BME280;64233;51.486;6.332;2023-02-01T06:50:16;101559.00;;;3.36;100.00
75640;BME280;64233;51.486;6.332;2023-02-01T06:52:41;101563.66;;;3.34;100.00
75640;BME280;64233;51.486;6.332;2023-02-01T06:55:07;101572.28;;;3.36;100.00
75640;BME280;64233;51.486;6.332;2023-02-01T06:57:32;101570.06;;;3.40;100.00
75640;BME280;64233;51.486;6.332;2023-02-01T06:59:59;101574.91;;;3.51;100.00
75640;BME280;64233;51.486;6.332;2023-02-01T07:02:24;101572.34;;;3.43;100.00
75640;BME280;64233;51.486;6.332;2023-02-01T07:04:50;101569.53;;;3.44;100.00
75640;BME280;64233;51.486;6.332;2023-02-01T07:07:15;101576.22;;;3.40;100.00
75640;BME280;64233;51.486;6.332;2023-02-01T07:09:40;101580.22;;;3.51;100.00
75640;BME280;64233;51.486;6.332;2023-02-01T07:12:06;101572.44;;;3.50;100.00
75640;BME280;64233;51.486;6.332;2023-02-01T07:14:31;101579.78;;;3.48;100.00
75640;BME280;64233;51.486;6.332;2023-02-01T07:16:56;101562.91;;;3.55;100.00
75640;BME280;64233;51.486;6.332;2023-02-01T07:19:22;101575.47;;;3.61;100.00
75640;BME280;64233;51.486;6.332;2023-02-01T07:21:47;101575.19;;;3.56;100.00
75640;BME280;64233;51.486;6.332;2023-02-01T07:24:12;101570.31;;;3.60;100.00
75640;BME280;64233;51.486;6.332;2023-02-01T07:26:39;101582.59;;;3.61;100.00
75640;BME280;64233;51.486;6.332;2023-02-01T07:29:04;101575.38;;;3.55;100.00
75640;BME280;64233;51.486;6.332;2023-02-01T07:31:30;101574.09;;;3.51;100.00
75640;BME280;64233;51.486;6.332;2023-02-01T07:33:55;101597.34;;;3.49;100.00
75640;BME280;64233;51.486;6.332;2023-02-01T07:36:22;101593.31;;;3.53;100.00
75640;BME280;64233;51.486;6.332;2023-02-01T07:38:48;101598.00;;;3.51;100.00
75640;BME280;64233;51.486;6.332;2023-02-01T07:41:13;101595.53;;;3.49;100.00
75640;BME280;64233;51.486;6.332;2023-02-01T07:43:39;101598.06;;;3.42;100.00
75640;BME280;64233;51.486;6.332;2023-02-01T07:46:04;101604.66;;;3.32;100.00
75640;BME280;64233;51.486;6.332;2023-02-01T07:48:30;101594.13;;;3.38;100.00
75640;BME280;64233;51.486;6.332;2023-02-01T07:51:00;101587.16;;;3.37;100.00
75640;BME280;64233;51.486;6.332;2023-02-01T07:53:26;101582.34;;;3.41;100.00
75640;BME280;64233;51.486;6.332;2023-02-01T07:55:52;101595.59;;;3.26;100.00
75640;BME280;64233;51.486;6.332;2023-02-01T07:58:17;101582.72;;;3.38;100.00
75640;BME280;64233;51.486;6.332;2023-02-01T08:00:42;101590.47;;;3.39;100.00
75640;BME280;64233;51.486;6.332;2023-02-01T08:03:26;101591.75;;;3.43;100.00
75640;BME280;64233;51.486;6.332;2023-02-01T08:05:55;101597.91;;;3.29;100.00
75640;BME280;64233;51.486;6.332;2023-02-01T08:08:20;101602.09;;;3.23;100.00
75640;BME280;64233;51.486;6.332;2023-02-01T08:10:46;101603.84;;;3.31;100.00
75640;BME280;64233;51.486;6.332;2023-02-01T08:13:11;101605.88;;;3.29;100.00
75640;BME280;64233;51.486;6.332;2023-02-01T08:15:36;101608.34;;;3.31;100.00
75640;BME280;64233;51.486;6.332;2023-02-01T08:18:02;101608.13;;;3.47;100.00
75640;BME280;64233;51.486;6.332;2023-02-01T08:20:27;101608.41;;;3.37;100.00
75640;BME280;64233;51.486;6.332;2023-02-01T08:22:53;101616.09;;;3.32;100.00
75640;BME280;64233;51.486;6.332;2023-02-01T08:25:19;101618.75;;;3.32;100.00
75640;BME280;64233;51.486;6.332;2023-02-01T08:27:45;101621.78;;;3.29;100.00
75640;BME280;64233;51.486;6.332;2023-02-01T08:30:11;101627.97;;;3.21;100.00
75640;BME280;64233;51.486;6.332;2023-02-01T08:32:36;101633.56;;;3.26;100.00
75640;BME280;64233;51.486;6.332;2023-02-01T08:35:02;101639.50;;;3.28;100.00
75640;BME280;64233;51.486;6.332;2023-02-01T08:37:28;101640.63;;;3.34;100.00
75640;BME280;64233;51.486;6.332;2023-02-01T08:39:53;101635.78;;;3.38;100.00
75640;BME280;64233;51.486;6.332;2023-02-01T08:42:19;101635.13;;;3.36;100.00
75640;BME280;64233;51.486;6.332;2023-02-01T08:45:09;101643.66;;;3.46;100.00
75640;BME280;64233;51.486;6.332;2023-02-01T08:47:41;101648.63;;;3.49;100.00
75640;BME280;64233;51.486;6.332;2023-02-01T08:50:07;101643.84;;;3.59;100.00
75640;BME280;64233;51.486;6.332;2023-02-01T08:52:33;101643.09;;;3.66;100.00
75640;BME280;64233;51.486;6.332;2023-02-01T08:54:59;101636.97;;;3.65;100.00
75640;BME280;64233;51.486;6.332;2023-02-01T08:57:24;101639.44;;;3.67;100.00
75640;BME280;64233;51.486;6.332;2023-02-01T08:59:49;101636.97;;;3.65;100.00
75640;BME280;64233;51.486;6.332;2023-02-01T09:02:16;101626.16;;;3.67;100.00
75640;BME280;64233;51.486;6.332;2023-02-01T09:04:41;101627.16;;;3.66;100.00
75640;BME280;64233;51.486;6.332;2023-02-01T09:07:10;101637.63;;;3.67;100.00
75640;BME280;64233;51.486;6.332;2023-02-01T09:09:36;101629.72;;;3.74;100.00
75640;BME280;64233;51.486;6.332;2023-02-01T09:12:02;101628.84;;;3.82;100.00
75640;BME280;64233;51.486;6.332;2023-02-01T09:14:28;101631.13;;;3.85;100.00
75640;BME280;64233;51.486;6.332;2023-02-01T09:16:53;101620.13;;;3.88;100.00
75640;BME280;64233;51.486;6.332;2023-02-01T09:19:19;101626.31;;;3.95;100.00
75640;BME280;64233;51.486;6.332;2023-02-01T09:21:44;101621.84;;;3.95;100.00
75640;BME280;64233;51.486;6.332;2023-02-01T09:24:10;101615.88;;;4.08;100.00
75640;BME280;64233;51.486;6.332;2023-02-01T09:26:36;101613.94;;;4.17;100.00
75640;BME280;64233;51.486;6.332;2023-02-01T09:29:05;101615.94;;;4.15;100.00
75640;BME280;64233;51.486;6.332;2023-02-01T09:31:35;101608.72;;;4.09;100.00
75640;BME280;64233;51.486;6.332;2023-02-01T09:34:01;101619.44;;;4.16;100.00
75640;BME280;64233;51.486;6.332;2023-02-01T09:36:26;101613.72;;;4.19;100.00
75640;BME280;64233;51.486;6.332;2023-02-01T09:38:52;101595.31;;;4.17;100.00
75640;BME280;64233;51.486;6.332;2023-02-01T09:46:40;101603.72;;;4.21;100.00
75640;BME280;64233;51.486;6.332;2023-02-01T09:49:32;101594.13;;;4.20;100.00
75640;BME280;64233;51.486;6.332;2023-02-01T09:52:02;101592.41;;;4.34;100.00
75640;BME280;64233;51.486;6.332;2023-02-01T09:54:40;101585.31;;;4.41;100.00
75640;BME280;64233;51.486;6.332;2023-02-01T09:57:16;101587.44;;;4.45;100.00
75640;BME280;64233;51.486;6.332;2023-02-01T09:59:56;101597.69;;;4.48;100.00
75640;BME280;64233;51.486;6.332;2023-02-01T10:02:26;101602.00;;;4.50;100.00
75640;BME280;64233;51.486;6.332;2023-02-01T10:04:55;101596.28;;;4.53;100.00
75640;BME280;64233;51.486;6.332;2023-02-01T10:26:02;101603.84;;;4.77;100.00
75640;BME280;64233;51.486;6.332;2023-02-01T10:28:32;101595.50;;;4.80;100.00
75640;BME280;64233;51.486;6.332;2023-02-01T10:30:59;101600.44;;;4.83;100.00
75640;BME280;64233;51.486;6.332;2023-02-01T10:33:33;101606.00;;;4.89;100.00
75640;BME280;64233;51.486;6.332;2023-02-01T10:36:30;101607.03;;;4.88;100.00
75640;BME280;64233;51.486;6.332;2023-02-01T10:38:58;101615.56;;;4.83;100.00
75640;BME280;64233;51.486;6.332;2023-02-01T10:41:30;101610.50;;;4.88;100.00
75640;BME280;64233;51.486;6.332;2023-02-01T10:43:58;101601.13;;;4.92;100.00
75640;BME280;64233;51.486;6.332;2023-02-01T10:46:25;101610.25;;;5.11;100.00
75640;BME280;64233;51.486;6.332;2023-02-01T10:48:52;101609.72;;;5.23;100.00
75640;BME280;64233;51.486;6.332;2023-02-01T10:51:33;101606.88;;;5.24;100.00
75640;BME280;64233;51.486;6.332;2023-02-01T10:54:19;101603.34;;;5.17;100.00
75640;BME280;64233;51.486;6.332;2023-02-01T10:56:46;101596.13;;;5.11;100.00
75640;BME280;64233;51.486;6.332;2023-02-01T10:59:21;101593.09;;;5.14;100.00
75640;BME280;64233;51.486;6.332;2023-02-01T11:01:49;101602.34;;;5.18;100.00
75640;BME280;64233;51.486;6.332;2023-02-01T11:04:19;101589.47;;;5.22;100.00
75640;BME280;64233;51.486;6.332;2023-02-01T11:06:46;101583.75;;;5.25;99.53
75640;BME280;64233;51.486;6.332;2023-02-01T11:09:22;101581.09;;;5.25;99.57
75640;BME280;64233;51.486;6.332;2023-02-01T11:16:48;101562.44;;;5.25;99.46
75640;BME280;64233;51.486;6.332;2023-02-01T11:19:16;101562.91;;;5.35;99.36
75640;BME280;64233;51.486;6.332;2023-02-01T11:21:42;101561.50;;;5.39;98.66
75640;BME280;64233;51.486;6.332;2023-02-01T11:24:25;101560.28;;;5.42;99.08
75640;BME280;64233;51.486;6.332;2023-02-01T11:26:54;101555.00;;;5.55;97.76
75640;BME280;64233;51.486;6.332;2023-02-01T11:29:21;101559.53;;;5.61;97.81
75640;BME280;64233;51.486;6.332;2023-02-01T11:31:56;101553.84;;;5.71;96.55
75640;BME280;64233;51.486;6.332;2023-02-01T11:34:36;101550.41;;;5.77;95.11
75640;BME280;64233;51.486;6.332;2023-02-01T11:37:02;101550.22;;;5.85;93.97
75640;BME280;64233;51.486;6.332;2023-02-01T11:39:33;101547.75;;;5.84;93.81
75640;BME280;64233;51.486;6.332;2023-02-01T11:42:12;101543.66;;;5.88;93.74
75640;BME280;64233;51.486;6.332;2023-02-01T11:44:40;101531.38;;;5.94;92.94
75640;BME280;64233;51.486;6.332;2023-02-01T11:49:57;101529.56;;;6.01;92.29
75640;BME280;64233;51.486;6.332;2023-02-01T12:01:08;101508.47;;;5.99;91.62
75640;BME280;64233;51.486;6.332;2023-02-01T12:03:58;101493.31;;;6.00;91.56
75640;BME280;64233;51.486;6.332;2023-02-01T12:06:48;101517.69;;;6.03;91.55
75640;BME280;64233;51.486;6.332;2023-02-01T12:09:39;101505.59;;;6.01;91.93
75640;BME280;64233;51.486;6.332;2023-02-01T12:12:41;101505.41;;;6.09;91.11
75640;BME280;64233;51.486;6.332;2023-02-01T12:15:53;101507.66;;;5.99;92.13
75640;BME280;64233;51.486;6.332;2023-02-01T12:21:18;101511.97;;;6.00;91.23
75640;BME280;64233;51.486;6.332;2023-02-01T12:26:50;101501.31;;;6.00;91.21
75640;BME280;64233;51.486;6.332;2023-02-01T12:29:46;101501.50;;;6.05;90.86
75640;BME280;64233;51.486;6.332;2023-02-01T12:32:35;101502.91;;;6.01;91.41
75640;BME280;64233;51.486;6.332;2023-02-01T12:43:29;101496.78;;;6.07;91.56
75640;BME280;64233;51.486;6.332;2023-02-01T12:46:27;101498.03;;;6.11;91.03
75640;BME280;64233;51.486;6.332;2023-02-01T12:51:28;101498.22;;;6.03;92.14
75640;BME280;64233;51.486;6.332;2023-02-01T12:54:06;101504.16;;;5.98;92.62
75640;BME280;64233;51.486;6.332;2023-02-01T12:56:40;101491.88;;;6.04;92.05
75640;BME280;64233;51.486;6.332;2023-02-01T12:59:27;101501.50;;;5.98;92.43
75640;BME280;64233;51.486;6.332;2023-02-01T13:02:01;101490.63;;;6.00;92.40
75640;BME280;64233;51.486;6.332;2023-02-01T13:04:44;101498.81;;;6.05;92.08
75640;BME280;64233;51.486;6.332;2023-02-01T13:07:17;101499.66;;;6.06;91.92
75640;BME280;64233;51.486;6.332;2023-02-01T13:09:54;101498.44;;;6.08;91.84
75640;BME280;64233;51.486;6.332;2023-02-01T13:12:26;101479.56;;;6.03;92.09
75640;BME280;64233;51.486;6.332;2023-02-01T13:15:28;101491.06;;;6.10;91.93
75640;BME280;64233;51.486;6.332;2023-02-01T13:17:57;101484.91;;;6.10;91.78
75640;BME280;64233;51.486;6.332;2023-02-01T13:20:33;101479.78;;;6.08;91.84
75640;BME280;64233;51.486;6.332;2023-02-01T13:23:04;101486.56;;;6.04;92.31
75640;BME280;64233;51.486;6.332;2023-02-01T13:25:35;101480.19;;;6.12;91.94
75640;BME280;64233;51.486;6.332;2023-02-01T13:28:06;101467.88;;;6.11;92.16
75640;BME280;64233;51.486;6.332;2023-02-01T13:30:52;101461.53;;;6.18;91.81
75640;BME280;64233;51.486;6.332;2023-02-01T13:33:51;101466.47;;;6.28;91.65
75640;BME280;64233;51.486;6.332;2023-02-01T13:36:30;101461.31;;;6.33;91.54
75640;BME280;64233;51.486;6.332;2023-02-01T13:41:57;101468.09;;;6.43;91.17
75640;BME280;64233;51.486;6.332;2023-02-01T13:44:28;101469.75;;;6.44;91.19
75640;BME280;64233;51.486;6.332;2023-02-01T13:46:58;101472.00;;;6.53;90.61
75640;BME280;64233;51.486;6.332;2023-02-01T13:49:27;101463.59;;;6.57;90.02
75640;BME280;64233;51.486;6.332;2023-02-01T13:51:56;101462.13;;;6.54;90.34
75640;BME280;64233;51.486;6.332;2023-02-01T13:54:31;101470.94;;;6.54;90.84
75640;BME280;64233;51.486;6.332;2023-02-01T13:57:01;101477.72;;;6.57;90.15
75640;BME280;64233;51.486;6.332;2023-02-01T14:02:36;101488.19;;;6.52;90.69
75640;BME280;64233;51.486;6.332;2023-02-01T14:05:02;101486.97;;;6.54;90.48
75640;BME280;64233;51.486;6.332;2023-02-01T14:07:28;101487.97;;;6.60;89.92
75640;BME280;64233;51.486;6.332;2023-02-01T14:09:53;101493.94;;;6.55;90.42
75640;BME280;64233;51.486;6.332;2023-02-01T14:12:43;101488.59;;;6.55;90.69
75640;BME280;64233;51.486;6.332;2023-02-01T14:15:37;101492.69;;;6.65;89.91
75640;BME280;64233;51.486;6.332;2023-02-01T14:23:57;101505.84;;;6.66;90.01
75640;BME280;64233;51.486;6.332;2023-02-01T14:26:41;101502.56;;;6.71;89.61
75640;BME280;64233;51.486;6.332;2023-02-01T14:32:04;101517.75;;;6.57;90.68